createdAt,value
2019-05-22T00:01:01.443Z,16.82
2019-05-22T00:03:31.817Z,19.65
2019-05-22T00:06:02.308Z,22.30
2019-05-22T00:08:31.900Z,25.23
2019-05-22T00:11:02.246Z,23.80
2019-05-22T00:13:31.154Z,22.50
2019-05-22T00:16:02.064Z,21.57
2019-05-22T00:18:31.532Z,24.87
2019-05-22T00:21:00.554Z,21.85
2019-05-22T00:23:31.319Z,21.55
2019-05-22T00:26:00.854Z,22.75
2019-05-22T00:28:30.956Z,21.52
2019-05-22T00:31:00.188Z,23.65
2019-05-22T00:33:29.905Z,17.12
2019-05-22T00:36:00.779Z,25.82
2019-05-22T00:38:31.810Z,21.23
2019-05-22T00:41:05.005Z,20.88
2019-05-22T00:43:41.785Z,21.77
2019-05-22T00:46:12.794Z,18.90
2019-05-22T00:48:43.335Z,26.25
2019-05-22T00:51:24.034Z,20.68
2019-05-22T00:54:00.556Z,22.52
2019-05-22T00:56:34.479Z,28.80
2019-05-22T00:59:21.382Z,18.82
2019-05-22T01:02:09.568Z,20.85
2019-05-22T01:04:42.198Z,22.52
2019-05-22T01:07:18.213Z,22.32
2019-05-22T01:09:52.916Z,20.25
2019-05-22T01:12:29.267Z,21.60
2019-05-22T01:15:01.116Z,24.18
2019-05-22T01:17:33.234Z,31.00
2019-05-22T01:20:03.319Z,35.37
2019-05-22T01:22:33.980Z,21.97
2019-05-22T01:25:04.654Z,23.60
2019-05-22T01:27:35.327Z,21.17
2019-05-22T01:30:07.518Z,27.35
2019-05-22T01:32:44.585Z,42.25
2019-05-22T01:35:14.138Z,23.75
2019-05-22T01:37:44.478Z,25.27
2019-05-22T01:40:32.714Z,29.35
2019-05-22T01:43:02.965Z,20.62
2019-05-22T01:45:33.671Z,20.60
2019-05-22T01:48:06.442Z,23.42
2019-05-22T01:50:41.300Z,24.18
2019-05-22T01:53:11.685Z,29.63
2019-05-22T01:55:41.613Z,21.07
2019-05-22T01:58:12.518Z,24.47
2019-05-22T02:00:42.235Z,22.65
2019-05-22T02:03:11.738Z,19.70
2019-05-22T02:05:42.571Z,21.73
2019-05-22T02:08:11.645Z,25.75
2019-05-22T02:10:42.602Z,22.52
2019-05-22T02:13:14.780Z,18.37
2019-05-22T02:15:46.297Z,19.35
2019-05-22T02:18:17.850Z,22.75
2019-05-22T02:20:46.882Z,23.15
2019-05-22T02:23:17.087Z,19.77
2019-05-22T02:25:45.823Z,26.42
2019-05-22T02:28:14.929Z,27.65
2019-05-22T02:30:46.325Z,28.38
2019-05-22T02:33:18.145Z,22.62
2019-05-22T02:35:47.567Z,23.18
2019-05-22T02:38:17.006Z,28.12
2019-05-22T02:40:49.662Z,18.40
2019-05-22T02:43:19.437Z,27.13
2019-05-22T02:45:49.782Z,20.80
2019-05-22T02:48:18.706Z,18.73
2019-05-22T02:50:48.471Z,23.95
2019-05-22T02:53:17.687Z,15.98
2019-05-22T02:55:47.494Z,16.32
2019-05-22T02:58:16.943Z,17.05
2019-05-22T03:01:01.551Z,23.50
2019-05-22T03:03:32.098Z,21.27
2019-05-22T03:06:02.347Z,14.35
2019-05-22T03:08:37.190Z,13.48
2019-05-22T03:11:07.435Z,17.12
2019-05-22T03:13:55.319Z,15.13
2019-05-22T03:16:26.482Z,14.70
2019-05-22T03:19:08.481Z,13.85
2019-05-22T03:21:26.166Z,15.93
2019-05-22T03:23:55.143Z,18.32
2019-05-22T03:26:39.363Z,11.97
2019-05-22T03:29:09.231Z,17.80
2019-05-22T03:31:38.467Z,13.75
2019-05-22T03:34:08.231Z,9.73
2019-05-22T03:36:37.594Z,18.67
2019-05-22T03:39:08.116Z,13.15
2019-05-22T03:41:37.788Z,15.98
2019-05-22T03:44:07.163Z,16.95
2019-05-22T03:46:40.710Z,13.15
2019-05-22T03:49:27.937Z,18.12
2019-05-22T03:51:42.543Z,9.53
2019-05-22T03:54:11.689Z,19.32
2019-05-22T03:56:42.167Z,14.40
2019-05-22T03:59:11.352Z,15.72
2019-05-22T04:01:40.325Z,27.65
2019-05-22T04:04:09.798Z,19.90
2019-05-22T04:06:40.313Z,13.13
2019-05-22T04:09:20.420Z,11.73
2019-05-22T04:11:50.539Z,24.82
2019-05-22T04:14:21.382Z,16.75
2019-05-22T04:16:51.920Z,11.40
2019-05-22T04:19:21.475Z,20.23
2019-05-22T04:21:50.507Z,14.05
2019-05-22T04:24:19.648Z,20.77
2019-05-22T04:26:49.129Z,16.70
2019-05-22T04:29:18.593Z,14.20
2019-05-22T04:31:53.339Z,17.40
2019-05-22T04:34:22.657Z,13.50
2019-05-22T04:36:51.621Z,13.90
2019-05-22T04:39:22.221Z,17.12
2019-05-22T04:41:51.496Z,15.03
2019-05-22T04:44:20.906Z,18.87
2019-05-22T04:46:50.401Z,15.85
2019-05-22T04:49:19.534Z,20.55
2019-05-22T04:51:48.174Z,22.35
2019-05-22T04:54:16.879Z,15.53
2019-05-22T04:56:45.611Z,26.25
2019-05-22T04:59:15.033Z,18.20
2019-05-22T05:01:43.689Z,18.90
2019-05-22T05:04:12.544Z,15.80
2019-05-22T05:06:41.872Z,15.03
2019-05-22T05:09:10.769Z,18.50
2019-05-22T05:11:39.746Z,17.37
2019-05-22T05:14:08.845Z,14.80
2019-05-22T05:16:37.832Z,17.67
2019-05-22T05:19:06.861Z,22.40
2019-05-22T05:21:37.066Z,16.48
2019-05-22T05:24:06.200Z,10.13
2019-05-22T05:26:36.178Z,15.13
2019-05-22T05:29:07.205Z,19.90
2019-05-22T05:31:36.166Z,12.13
2019-05-22T05:34:16.889Z,13.18
2019-05-22T05:36:46.614Z,18.12
2019-05-22T05:39:37.953Z,14.45
2019-05-22T05:42:06.696Z,20.43
2019-05-22T05:44:36.264Z,16.77
2019-05-22T05:47:06.891Z,14.18
2019-05-22T05:49:35.833Z,15.15
2019-05-22T05:52:06.355Z,14.35
2019-05-22T05:54:35.619Z,16.87
2019-05-22T05:57:36.515Z,19.73
2019-05-22T06:00:09.177Z,17.15
2019-05-22T06:02:38.076Z,11.83
2019-05-22T06:05:07.557Z,21.12
2019-05-22T06:07:36.268Z,19.12
2019-05-22T06:10:28.318Z,18.77
2019-05-22T06:12:57.693Z,16.73
2019-05-22T06:15:47.435Z,18.60
2019-05-22T06:18:29.951Z,20.57
2019-05-22T06:21:03.765Z,13.22
2019-05-22T06:23:39.611Z,25.68
2019-05-22T06:26:09.973Z,20.65
2019-05-22T06:28:40.509Z,29.67
2019-05-22T06:31:23.786Z,19.35
2019-05-22T06:33:52.422Z,24.70
2019-05-22T06:36:21.335Z,23.40
2019-05-22T06:38:53.607Z,22.25
2019-05-22T06:41:24.437Z,12.40
2019-05-22T06:44:27.434Z,19.40
2019-05-22T06:46:57.059Z,24.75
2019-05-22T06:49:34.681Z,49.93
2019-05-22T06:52:05.629Z,34.10
2019-05-22T06:54:34.543Z,27.60
2019-05-22T06:57:05.440Z,22.45
2019-05-22T06:59:34.385Z,22.00
2019-05-22T07:02:04.697Z,22.77
2019-05-22T07:04:34.129Z,30.25
2019-05-22T07:07:04.789Z,24.18
2019-05-22T07:09:33.731Z,18.65
2019-05-22T07:12:03.050Z,23.07
2019-05-22T07:14:33.334Z,42.55
2019-05-22T07:17:02.074Z,25.10
2019-05-22T07:19:32.725Z,23.80
2019-05-22T07:22:01.329Z,27.93
2019-05-22T07:24:30.371Z,29.52
2019-05-22T07:27:02.211Z,26.27
2019-05-22T07:29:31.517Z,35.45
2019-05-22T07:32:02.300Z,17.77
2019-05-22T07:34:31.394Z,15.45
2019-05-22T07:37:00.130Z,13.18
2019-05-22T07:39:29.166Z,19.45
2019-05-22T07:41:58.248Z,16.07
2019-05-22T07:44:26.955Z,14.33
2019-05-22T07:46:55.617Z,10.50
2019-05-22T07:49:24.692Z,11.78
2019-05-22T07:52:00.621Z,14.10
2019-05-22T07:54:24.429Z,11.53
2019-05-22T07:56:53.195Z,11.65
2019-05-22T07:59:21.854Z,10.48
2019-05-22T08:01:51.518Z,8.75
2019-05-22T08:04:20.803Z,49.08
2019-05-22T08:06:49.486Z,35.10
2019-05-22T08:09:19.941Z,14.13
2019-05-22T08:11:48.529Z,14.60
2019-05-22T08:14:19.211Z,7.15
2019-05-22T08:16:48.261Z,18.50
2019-05-22T08:19:17.119Z,10.85
2019-05-22T08:21:46.352Z,16.07
2019-05-22T08:24:15.305Z,17.40
2019-05-22T08:26:53.967Z,15.05
2019-05-22T08:29:15.683Z,15.28
2019-05-22T08:31:46.269Z,25.12
2019-05-22T08:34:15.206Z,11.63
2019-05-22T08:36:46.874Z,12.95
2019-05-22T08:39:15.947Z,9.00
2019-05-22T08:41:44.893Z,14.73
2019-05-22T08:44:17.305Z,9.83
2019-05-22T08:46:45.975Z,18.75
2019-05-22T08:49:15.362Z,11.83
2019-05-22T08:51:44.794Z,9.30
2019-05-22T08:54:14.219Z,23.70
2019-05-22T08:56:46.451Z,18.95
2019-05-22T08:59:19.498Z,22.58
2019-05-22T09:01:46.983Z,14.53
2019-05-22T09:04:16.499Z,11.53
2019-05-22T09:06:45.421Z,19.37
2019-05-22T09:09:14.516Z,23.45
2019-05-22T09:11:43.172Z,33.38
2019-05-22T09:14:12.190Z,16.75
2019-05-22T09:16:41.379Z,18.57
2019-05-22T09:19:10.472Z,11.78
2019-05-22T09:21:40.750Z,10.68
2019-05-22T09:24:13.281Z,15.45
2019-05-22T09:26:42.327Z,8.20
2019-05-22T09:29:11.292Z,11.63
2019-05-22T09:31:40.729Z,10.38
2019-05-22T09:34:09.821Z,17.30
2019-05-22T09:36:38.761Z,15.13
2019-05-22T09:39:09.467Z,11.95
2019-05-22T09:41:38.507Z,9.10
2019-05-22T09:44:07.375Z,16.02
2019-05-22T09:46:36.621Z,14.43
2019-05-22T09:49:06.079Z,14.25
2019-05-22T09:51:34.827Z,13.62
2019-05-22T09:54:03.659Z,10.78
2019-05-22T09:56:32.609Z,10.63
2019-05-22T09:59:01.737Z,18.80
2019-05-22T10:01:30.935Z,19.17
2019-05-22T10:04:00.167Z,10.00
2019-05-22T10:06:29.277Z,16.87
2019-05-22T10:08:58.312Z,8.70
2019-05-22T10:11:27.217Z,13.43
2019-05-22T10:13:56.190Z,18.82
2019-05-22T10:16:24.949Z,15.48
2019-05-22T10:18:53.827Z,11.38
2019-05-22T10:21:22.926Z,15.28
2019-05-22T10:23:51.581Z,6.50
2019-05-22T10:26:20.698Z,11.40
2019-05-22T10:28:49.664Z,9.33
2019-05-22T10:31:21.576Z,9.63
2019-05-22T10:33:51.882Z,13.35
2019-05-22T10:36:19.274Z,11.85
2019-05-22T10:38:48.139Z,9.63
2019-05-22T10:41:18.283Z,8.68
2019-05-22T10:43:47.478Z,9.48
2019-05-22T10:46:16.275Z,12.15
2019-05-22T10:48:45.612Z,17.75
2019-05-22T10:51:14.344Z,8.75
2019-05-22T10:53:42.996Z,12.73
2019-05-22T10:56:11.756Z,14.93
2019-05-22T10:58:40.452Z,11.40
2019-05-22T11:01:10.110Z,15.20
2019-05-22T11:03:39.270Z,8.58
2019-05-22T11:06:08.539Z,11.48
2019-05-22T11:08:37.701Z,9.90
2019-05-22T11:11:06.406Z,10.60
2019-05-22T11:13:36.734Z,14.85
2019-05-22T11:16:05.759Z,11.33
2019-05-22T11:18:35.382Z,12.28
2019-05-22T11:21:04.866Z,9.70
2019-05-22T11:23:50.053Z,13.95
2019-05-22T11:26:04.809Z,11.25
2019-05-22T11:28:33.876Z,12.50
2019-05-22T11:31:04.462Z,7.65
2019-05-22T11:33:34.500Z,12.33
2019-05-22T11:36:04.737Z,13.25
2019-05-22T11:38:33.555Z,15.00
2019-05-22T11:41:02.554Z,7.28
2019-05-22T11:43:31.869Z,4.90
2019-05-22T11:46:00.429Z,10.25
2019-05-22T11:48:29.378Z,8.58
2019-05-22T11:51:01.066Z,10.63
2019-05-22T11:53:29.445Z,10.03
2019-05-22T11:55:58.635Z,12.85
2019-05-22T11:58:27.427Z,12.95
2019-05-22T12:00:56.099Z,14.47
2019-05-22T12:03:25.237Z,12.45
2019-05-22T12:05:55.444Z,14.93
2019-05-22T12:08:26.517Z,11.22
2019-05-22T12:10:55.792Z,5.37
2019-05-22T12:13:24.961Z,11.05
2019-05-22T12:15:56.491Z,11.55
2019-05-22T12:18:27.113Z,11.45
2019-05-22T12:20:56.022Z,13.95
2019-05-22T12:23:25.991Z,14.68
2019-05-22T12:25:54.937Z,9.10
2019-05-22T12:28:24.552Z,7.28
2019-05-22T12:30:53.325Z,11.45
2019-05-22T12:33:23.078Z,17.02
2019-05-22T12:35:53.010Z,19.27
2019-05-22T12:38:26.559Z,27.95
2019-05-22T12:40:54.076Z,28.73
2019-05-22T12:43:23.148Z,23.00
2019-05-22T12:45:52.486Z,24.70
2019-05-22T12:48:21.254Z,21.70
2019-05-22T12:50:50.843Z,18.25
2019-05-22T12:53:20.623Z,21.65
2019-05-22T12:55:49.607Z,22.07
2019-05-22T12:58:19.349Z,20.90
2019-05-22T13:00:48.459Z,21.87
2019-05-22T13:03:18.387Z,26.48
2019-05-22T13:05:47.709Z,28.47
2019-05-22T13:08:17.533Z,21.70
2019-05-22T13:10:47.063Z,28.07
2019-05-22T13:13:16.142Z,30.15
2019-05-22T13:15:45.206Z,23.60
2019-05-22T13:18:17.153Z,33.35
2019-05-22T13:20:47.831Z,28.50
2019-05-22T13:23:17.510Z,20.37
2019-05-22T13:25:47.138Z,22.05
2019-05-22T13:28:18.253Z,19.20
2019-05-22T13:30:51.235Z,17.07
2019-05-22T13:33:22.323Z,21.20
2019-05-22T13:35:52.134Z,26.27
2019-05-22T13:38:21.218Z,22.50
2019-05-22T13:40:50.176Z,22.07
2019-05-22T13:43:19.565Z,21.93
2019-05-22T13:45:48.253Z,19.07
2019-05-22T13:48:16.931Z,23.05
2019-05-22T13:50:45.956Z,22.35
2019-05-22T13:53:17.422Z,24.47
2019-05-22T13:55:46.741Z,30.20
2019-05-22T13:58:16.375Z,24.87
2019-05-22T14:00:45.250Z,27.10
2019-05-22T14:03:15.735Z,38.28
2019-05-22T14:05:47.453Z,34.03
2019-05-22T14:08:16.570Z,33.70
2019-05-22T14:10:49.629Z,31.15
2019-05-22T14:13:16.805Z,31.35
2019-05-22T14:15:52.557Z,26.23
2019-05-22T14:18:16.397Z,31.23
2019-05-22T14:20:45.252Z,26.25
2019-05-22T14:23:14.528Z,26.45
2019-05-22T14:25:44.169Z,30.02
2019-05-22T14:28:14.078Z,25.32
2019-05-22T14:30:43.747Z,22.85
2019-05-22T14:33:12.831Z,28.35
2019-05-22T14:35:48.703Z,33.60
2019-05-22T14:38:13.413Z,25.35
2019-05-22T14:40:42.741Z,24.50
2019-05-22T14:43:11.786Z,21.33
2019-05-22T14:45:41.818Z,21.75
2019-05-22T14:48:11.554Z,22.93
2019-05-22T14:50:40.306Z,29.52
2019-05-22T14:53:10.558Z,23.65
2019-05-22T14:55:40.586Z,28.23
2019-05-22T14:58:09.957Z,20.10
2019-05-22T15:00:40.714Z,20.52
2019-05-22T15:03:09.966Z,31.12
2019-05-22T15:05:38.838Z,22.67
2019-05-22T15:08:07.753Z,22.82
2019-05-22T15:10:37.270Z,34.43
2019-05-22T15:13:06.313Z,22.45
2019-05-22T15:15:40.105Z,25.05
2019-05-22T15:18:06.234Z,28.65
2019-05-22T15:20:42.385Z,29.52
2019-05-22T15:23:11.392Z,29.05
2019-05-22T15:25:40.302Z,27.48
2019-05-22T15:28:09.948Z,24.00
2019-05-22T15:30:39.916Z,23.98
2019-05-22T15:33:09.678Z,33.80
2019-05-22T15:35:38.397Z,29.25
2019-05-22T15:38:09.232Z,28.73
2019-05-22T15:40:38.241Z,25.17
2019-05-22T15:43:09.587Z,9.28
2019-05-22T15:45:40.205Z,9.40
2019-05-22T15:48:12.233Z,7.75
2019-05-22T15:50:44.883Z,5.77
2019-05-22T15:53:15.501Z,9.35
2019-05-22T15:55:47.858Z,8.15
2019-05-22T15:58:18.035Z,9.80
2019-05-22T16:00:48.149Z,15.88
2019-05-22T16:03:22.676Z,12.23
2019-05-22T16:05:53.707Z,8.68
2019-05-22T16:08:23.070Z,14.70
2019-05-22T16:10:52.254Z,7.12
2019-05-22T16:13:22.931Z,11.73
2019-05-22T16:15:55.787Z,10.32
2019-05-22T16:21:00.554Z,8.18
2019-05-22T16:23:31.631Z,6.50
2019-05-22T16:26:01.528Z,9.45
2019-05-22T16:28:35.718Z,7.85
2019-05-22T16:31:03.527Z,8.95
2019-05-22T16:33:34.569Z,11.45
2019-05-22T16:36:04.703Z,10.53
2019-05-22T16:38:36.553Z,12.75
2019-05-22T16:41:06.419Z,8.93
2019-05-22T16:43:49.033Z,11.50
2019-05-22T16:46:10.255Z,8.38
2019-05-22T16:48:41.314Z,12.68
2019-05-22T16:51:11.952Z,8.08
2019-05-22T16:53:41.035Z,11.00
2019-05-22T16:56:09.829Z,7.25
2019-05-22T16:58:38.756Z,9.18
2019-05-22T17:01:09.170Z,12.07
2019-05-22T17:03:38.867Z,10.30
2019-05-22T17:06:07.646Z,9.05
2019-05-22T17:08:37.439Z,9.40
2019-05-22T17:11:07.818Z,10.93
2019-05-22T17:13:37.127Z,16.02
2019-05-22T17:16:07.316Z,6.47
2019-05-22T17:18:47.277Z,12.73
2019-05-22T17:21:08.009Z,7.70
2019-05-22T17:23:36.672Z,8.53
2019-05-22T17:26:05.653Z,13.00
2019-05-22T17:28:34.439Z,8.73
2019-05-22T17:31:04.261Z,13.25
2019-05-22T17:33:34.019Z,13.68
2019-05-22T17:36:05.774Z,8.55
2019-05-22T17:38:35.135Z,10.25
2019-05-22T17:41:04.749Z,8.98
2019-05-22T17:43:34.166Z,11.83
2019-05-22T17:46:04.416Z,8.80
2019-05-22T17:48:34.174Z,11.90
2019-05-22T17:51:04.518Z,9.18
2019-05-22T17:53:33.912Z,11.53
2019-05-22T17:56:02.497Z,13.10
2019-05-22T17:58:31.174Z,7.80
2019-05-22T18:01:01.092Z,9.05
2019-05-22T18:03:30.270Z,14.07
2019-05-22T18:05:59.814Z,12.63
2019-05-22T18:08:29.546Z,8.50
2019-05-22T18:11:00.150Z,17.05
2019-05-22T18:13:29.868Z,10.48
2019-05-22T18:15:58.721Z,11.10
2019-05-22T18:18:27.363Z,13.35
2019-05-22T18:20:56.678Z,11.33
2019-05-22T18:23:25.425Z,13.08
2019-05-22T18:25:54.146Z,11.83
2019-05-22T18:28:23.462Z,13.48
2019-05-22T18:30:52.653Z,17.37
2019-05-22T18:33:21.296Z,12.00
2019-05-22T18:35:49.936Z,10.93
2019-05-22T18:38:18.601Z,13.88
2019-05-22T18:40:47.322Z,12.90
2019-05-22T18:43:18.836Z,14.23
2019-05-22T18:45:46.660Z,10.80
2019-05-22T18:48:15.677Z,12.45
2019-05-22T18:50:44.651Z,13.43
2019-05-22T18:53:13.500Z,17.70
2019-05-22T18:55:42.231Z,14.83
2019-05-22T18:58:11.268Z,12.10
2019-05-22T19:00:40.034Z,14.50
2019-05-22T19:03:09.264Z,16.95
2019-05-22T19:05:38.151Z,19.98
2019-05-22T19:08:07.083Z,31.20
2019-05-22T19:10:35.926Z,31.12
2019-05-22T19:13:04.933Z,27.77
2019-05-22T19:15:33.811Z,25.00
2019-05-22T19:18:02.679Z,29.80
2019-05-22T19:20:31.600Z,31.02
2019-05-22T19:23:01.698Z,22.80
2019-05-22T19:25:30.874Z,28.32
2019-05-22T19:27:59.514Z,28.47
2019-05-22T19:30:28.345Z,23.52
2019-05-22T19:32:56.971Z,27.07
2019-05-22T19:35:25.604Z,25.80
2019-05-22T19:37:54.933Z,29.30
2019-05-22T19:40:23.745Z,26.55
2019-05-22T19:42:52.678Z,24.60
2019-05-22T19:45:22.179Z,30.17
2019-05-22T19:47:52.890Z,25.43
2019-05-22T19:50:23.853Z,24.67
2019-05-22T19:52:55.176Z,21.30
2019-05-22T19:55:26.072Z,23.10
2019-05-22T19:57:55.145Z,23.92
2019-05-22T20:00:24.760Z,29.57
2019-05-22T20:02:54.899Z,25.05
2019-05-22T20:05:25.481Z,24.65
2019-05-22T20:07:54.693Z,20.95
2019-05-22T20:10:23.746Z,22.93
2019-05-22T20:12:52.493Z,24.32
2019-05-22T20:15:22.557Z,28.92
2019-05-22T20:17:51.606Z,34.00
2019-05-22T20:20:22.303Z,25.50
2019-05-22T20:22:53.209Z,24.60
2019-05-22T20:25:23.079Z,26.20
2019-05-22T20:27:52.200Z,24.72
2019-05-22T20:30:22.901Z,26.45
2019-05-22T20:32:51.742Z,22.75
2019-05-22T20:35:20.988Z,18.60
2019-05-22T20:37:50.226Z,18.57
2019-05-22T20:40:20.386Z,22.87
2019-05-22T20:42:49.419Z,17.07
2019-05-22T20:45:21.070Z,20.92
2019-05-22T20:47:54.404Z,20.08
2019-05-22T20:50:24.595Z,28.75
2019-05-22T20:52:53.536Z,14.80
2019-05-22T20:55:22.848Z,18.82
2019-05-22T20:57:53.149Z,17.10
2019-05-22T21:00:22.065Z,25.95
2019-05-22T21:02:53.732Z,20.30
2019-05-22T21:05:25.360Z,22.27
2019-05-22T21:07:57.231Z,23.80
2019-05-22T21:10:27.235Z,30.05
2019-05-22T21:12:57.817Z,27.48
2019-05-22T21:15:28.705Z,27.67
2019-05-22T21:17:57.806Z,22.45
2019-05-22T21:20:28.131Z,24.40
2019-05-22T21:22:57.050Z,30.43
2019-05-22T21:25:26.058Z,33.98
2019-05-22T21:27:54.812Z,24.75
2019-05-22T21:30:25.201Z,26.07
2019-05-22T21:32:54.087Z,26.23
2019-05-22T21:35:23.827Z,29.72
2019-05-22T21:37:52.852Z,37.33
2019-05-22T21:40:23.036Z,25.65
2019-05-22T21:42:53.980Z,33.98
2019-05-22T21:45:24.193Z,32.30
2019-05-22T21:47:53.293Z,33.92
2019-05-22T21:50:22.713Z,33.78
2019-05-22T21:52:52.211Z,32.73
2019-05-22T21:55:22.269Z,30.10
2019-05-22T21:57:51.049Z,35.33
2019-05-22T22:00:36.043Z,35.28
2019-05-22T22:03:06.938Z,34.58
2019-05-22T22:05:35.915Z,30.52
2019-05-22T22:08:05.320Z,34.63
2019-05-22T22:10:34.021Z,33.98
2019-05-22T22:13:07.563Z,38.88
2019-05-22T22:15:35.775Z,36.33
2019-05-22T22:18:06.212Z,30.77
2019-05-22T22:20:35.182Z,38.53
2019-05-22T22:23:04.999Z,38.83
2019-05-22T22:25:34.048Z,39.58
2019-05-22T22:28:04.546Z,39.08
2019-05-22T22:30:41.038Z,39.45
2019-05-22T22:33:10.087Z,49.45
2019-05-22T22:35:39.599Z,36.08
2019-05-22T22:38:09.232Z,44.60
2019-05-22T22:40:39.216Z,37.65
2019-05-22T22:43:10.528Z,39.23
2019-05-22T22:45:43.578Z,40.75
2019-05-22T22:48:15.885Z,38.70
2019-05-22T22:50:45.557Z,34.83
2019-05-22T22:53:18.514Z,35.63
2019-05-22T22:58:18.999Z,37.88
2019-05-22T23:00:49.376Z,38.23
2019-05-22T23:03:24.554Z,41.65
2019-05-22T23:05:53.735Z,35.70
2019-05-22T23:08:29.725Z,38.42
2019-05-22T23:10:58.427Z,42.00
2019-05-22T23:13:27.982Z,41.08
2019-05-22T23:15:58.063Z,39.55
2019-05-22T23:18:43.055Z,37.90
2019-05-22T23:21:12.227Z,34.48
2019-05-22T23:23:41.351Z,40.75
2019-05-22T23:26:11.598Z,46.25
2019-05-22T23:28:42.256Z,45.65
2019-05-22T23:31:12.070Z,38.70
2019-05-22T23:33:41.088Z,39.30
2019-05-22T23:36:12.155Z,39.85
2019-05-22T23:38:41.597Z,39.85
2019-05-22T23:41:11.992Z,38.80
2019-05-22T23:43:42.566Z,42.60
2019-05-22T23:46:13.478Z,43.48
2019-05-22T23:48:43.907Z,40.55
2019-05-22T23:51:12.802Z,38.65
2019-05-22T23:53:42.237Z,43.87
2019-05-22T23:56:11.837Z,40.15
2019-05-22T23:58:52.098Z,43.38
